KHZL

Hazleton Regional Airport

Hazleton, Pennsylvania, USA
METAR KHZL 232015Z AUTO 26008G17KT 220V310 10SM SCT060 15/M01 A2996 RMK AO2
Observed Flight Rules
Oct-23 @ 20:15 UTC (15 minutes ago) Visual Flight Rules
Wind Visibility Clouds
260° at 8 knots
 Gusting to 17 knots
10 miles
  • Scattered at 6,000' AGL
Temperatures Readings
Current 15°C / 59°F
Dewpoint -1°C / 30°F
Humidity 34%
Altimeter 29.96" Hg
Pressure 1015 hPa
Elevation 489
METAR KHZL 232015Z AUTO 26008G17KT 220V310 10SM SCT060 15/M01 A2996 RMK AO2
Observed Flight Rules
Oct-23 @ 20:15 UTC
(15 minutes ago)
VFR
Wind Visibility
260° at 8 knots
 Gusting to 17 knots
10 miles
Clouds
  • Scattered at 6,000' AGL
Temperature Dewpoint
15°C / 59°F -1°C / 30°F
Humidity Altimeter Pressure
34% 29.96" Hg 1015 hPa